createdAt,value
2022-12-01T00:00:13.520Z,101092.28
2022-12-01T00:03:16.349Z,101089.59
2022-12-01T00:06:20.993Z,101091.88
2022-12-01T00:09:41.872Z,101111.50
2022-12-01T00:12:44.346Z,101108.81
2022-12-01T00:15:47.283Z,101111.72
2022-12-01T00:18:51.280Z,101114.22
2022-12-01T00:21:53.937Z,101112.72
2022-12-01T00:24:56.262Z,101111.81
2022-12-01T00:27:58.966Z,101117.72
2022-12-01T00:31:01.346Z,101116.84
2022-12-01T00:34:06.888Z,101116.03
2022-12-01T00:37:13.271Z,101116.84
2022-12-01T00:40:15.653Z,101107.94
2022-12-01T00:43:17.995Z,101126.69
2022-12-01T00:46:20.560Z,101115.97
2022-12-01T00:49:22.849Z,101115.34
2022-12-01T00:52:25.151Z,101124.31
2022-12-01T00:55:27.535Z,101112.84
2022-12-01T00:58:29.857Z,101119.19
2022-12-01T01:01:32.204Z,101120.53
2022-12-01T01:04:36.443Z,101133.88
2022-12-01T01:07:40.348Z,101126.09
2022-12-01T01:10:44.799Z,101123.16
2022-12-01T01:13:47.234Z,101124.59
2022-12-01T01:16:49.938Z,101117.66
2022-12-01T01:19:55.218Z,101118.34
2022-12-01T01:22:57.664Z,101113.22
2022-12-01T01:26:12.402Z,101121.78
2022-12-01T01:29:14.657Z,101112.41
2022-12-01T01:32:16.921Z,101113.47
2022-12-01T01:35:19.118Z,101108.59
2022-12-01T01:38:21.376Z,101116.56
2022-12-01T01:41:24.461Z,101113.91
2022-12-01T01:44:50.286Z,101118.31
2022-12-01T01:47:55.616Z,101117.59
2022-12-01T01:50:58.042Z,101115.47
2022-12-01T01:54:04.541Z,101114.38
2022-12-01T01:57:09.421Z,101121.75
2022-12-01T02:00:15.073Z,101117.59
2022-12-01T02:03:20.545Z,101117.63
2022-12-01T02:06:24.388Z,101121.25
2022-12-01T02:09:26.677Z,101115.50
2022-12-01T02:12:57.744Z,101110.56
2022-12-01T02:16:24.609Z,101114.44
2022-12-01T02:19:45.160Z,101115.03
2022-12-01T02:23:05.398Z,101106.44
2022-12-01T02:26:26.831Z,101118.66
2022-12-01T02:29:57.097Z,101119.84
2022-12-01T02:33:15.041Z,101118.47
2022-12-01T02:36:22.213Z,101121.28
2022-12-01T02:39:35.808Z,101121.06
2022-12-01T02:42:50.282Z,101121.84
2022-12-01T02:46:17.378Z,101114.06
2022-12-01T02:49:26.355Z,101113.25
2022-12-01T02:52:29.174Z,101111.63
2022-12-01T02:55:33.747Z,101107.59
2022-12-01T02:58:36.084Z,101109.22
2022-12-01T03:02:09.435Z,101105.22
2022-12-01T03:05:30.154Z,101097.38
2022-12-01T03:08:46.107Z,101106.78
2022-12-01T03:12:26.084Z,101100.53
2022-12-01T03:16:04.732Z,101098.69
2022-12-01T03:19:32.518Z,101097.28
2022-12-01T03:23:00.161Z,101101.66
2022-12-01T03:26:07.101Z,101096.44
2022-12-01T03:29:15.108Z,101099.41
2022-12-01T03:32:24.841Z,101102.38
2022-12-01T03:35:38.080Z,101090.63
2022-12-01T03:38:45.600Z,101087.63
2022-12-01T03:41:54.995Z,101095.94
2022-12-01T03:45:04.059Z,101088.94
2022-12-01T03:48:07.399Z,101093.09
2022-12-01T03:51:38.702Z,101099.53
2022-12-01T03:55:04.648Z,101091.94
2022-12-01T03:58:12.529Z,101093.44
2022-12-01T04:01:15.083Z,101093.66
2022-12-01T04:04:17.677Z,101088.66
2022-12-01T04:07:21.637Z,101098.06
2022-12-01T04:10:24.287Z,101087.94
2022-12-01T04:13:26.887Z,101086.56
2022-12-01T04:16:29.255Z,101084.19
2022-12-01T04:19:32.124Z,101083.78
2022-12-01T04:22:34.495Z,101079.00
2022-12-01T04:25:36.727Z,101087.38
2022-12-01T04:28:39.016Z,101088.16
2022-12-01T04:31:41.734Z,101094.91
2022-12-01T04:34:44.315Z,101097.31
2022-12-01T04:37:46.588Z,101086.91
2022-12-01T04:40:48.823Z,101089.66
2022-12-01T04:43:54.385Z,101091.41
2022-12-01T04:46:56.874Z,101094.53
2022-12-01T04:49:59.190Z,101097.72
2022-12-01T04:53:01.464Z,101113.03
2022-12-01T04:56:04.418Z,101117.81
2022-12-01T04:59:07.582Z,101119.97
2022-12-01T05:02:10.078Z,101126.78
2022-12-01T05:05:14.143Z,101120.03
2022-12-01T05:08:16.510Z,101113.81
2022-12-01T05:11:19.137Z,101112.59
2022-12-01T05:14:21.364Z,101108.63
2022-12-01T05:17:23.750Z,101109.66
2022-12-01T05:20:44.560Z,101112.06
2022-12-01T05:23:46.870Z,101117.91
2022-12-01T05:26:49.249Z,101114.72
2022-12-01T05:29:51.849Z,101117.22
2022-12-01T05:32:54.848Z,101111.56
2022-12-01T05:35:57.405Z,101125.00
2022-12-01T05:38:59.805Z,101114.81
2022-12-01T05:42:02.310Z,101125.22
2022-12-01T05:45:04.988Z,101129.91
2022-12-01T05:48:07.242Z,101131.66
2022-12-01T05:51:11.160Z,101126.72
2022-12-01T05:54:13.454Z,101121.91
2022-12-01T05:57:15.823Z,101119.75
2022-12-01T06:00:18.623Z,101122.91
2022-12-01T06:03:20.875Z,101121.50
2022-12-01T06:06:23.179Z,101127.28
2022-12-01T06:09:25.453Z,101121.16
2022-12-01T06:12:27.937Z,101151.06
2022-12-01T06:15:30.240Z,101138.28
2022-12-01T06:18:34.905Z,101145.13
2022-12-01T06:21:37.151Z,101150.91
2022-12-01T06:24:39.449Z,101142.97
2022-12-01T06:27:41.689Z,101144.00
2022-12-01T06:30:44.403Z,101141.50
2022-12-01T06:33:46.824Z,101143.13
2022-12-01T06:36:49.559Z,101144.91
2022-12-01T06:39:52.252Z,101143.53
2022-12-01T06:42:54.761Z,101138.81
2022-12-01T06:46:01.655Z,101146.44
2022-12-01T06:49:04.987Z,101144.69
2022-12-01T06:52:07.378Z,101138.53
2022-12-01T06:55:09.909Z,101149.38
2022-12-01T06:58:12.541Z,101133.44
2022-12-01T07:01:17.210Z,101136.50
2022-12-01T07:04:19.736Z,101152.72
2022-12-01T07:07:22.136Z,101141.16
2022-12-01T07:10:24.504Z,101136.41
2022-12-01T07:13:32.777Z,101130.63
2022-12-01T07:16:35.842Z,101141.22
2022-12-01T07:19:38.195Z,101145.31
2022-12-01T07:22:40.544Z,101144.81
2022-12-01T07:25:42.924Z,101139.63
2022-12-01T07:28:45.777Z,101147.63
2022-12-01T07:31:48.188Z,101151.69
2022-12-01T07:34:50.538Z,101154.34
2022-12-01T07:37:56.869Z,101157.91
2022-12-01T07:41:14.263Z,101154.56
2022-12-01T07:44:16.703Z,101149.69
2022-12-01T07:47:19.346Z,101146.16
2022-12-01T07:50:21.647Z,101148.22
2022-12-01T07:53:24.133Z,101144.88
2022-12-01T07:56:26.431Z,101139.59
2022-12-01T07:59:28.747Z,101152.44
2022-12-01T08:02:31.239Z,101154.13
2022-12-01T08:05:33.804Z,101157.97
2022-12-01T08:08:37.898Z,101161.22
2022-12-01T08:11:40.328Z,101151.16
2022-12-01T08:14:42.943Z,101163.75
2022-12-01T08:17:45.182Z,101163.97
2022-12-01T08:20:47.598Z,101161.53
2022-12-01T08:23:55.706Z,101152.97
2022-12-01T08:26:58.002Z,101146.56
2022-12-01T08:30:00.368Z,101143.81
2022-12-01T08:33:03.010Z,101149.59
2022-12-01T08:36:05.925Z,101144.31
2022-12-01T08:39:08.913Z,101160.41
2022-12-01T08:42:11.239Z,101165.03
2022-12-01T08:45:13.738Z,101169.13
2022-12-01T08:48:15.991Z,101169.41
2022-12-01T08:51:19.325Z,101160.28
2022-12-01T08:54:22.085Z,101168.72
2022-12-01T08:57:24.429Z,101166.34
2022-12-01T09:00:26.755Z,101163.78
2022-12-01T09:03:29.155Z,101150.06
2022-12-01T09:06:33.478Z,101160.88
2022-12-01T09:09:36.259Z,101159.28
2022-12-01T09:12:38.719Z,101160.09
2022-12-01T09:15:41.276Z,101149.78
2022-12-01T09:18:45.422Z,101151.06
2022-12-01T09:21:48.276Z,101147.44
2022-12-01T09:24:50.570Z,101145.53
2022-12-01T09:27:52.903Z,101138.97
2022-12-01T09:30:55.219Z,101141.88
2022-12-01T09:34:00.212Z,101144.25
2022-12-01T09:37:02.593Z,101139.75
2022-12-01T09:40:05.532Z,101139.06
2022-12-01T09:43:18.816Z,101137.34
2022-12-01T09:46:25.912Z,101148.03
2022-12-01T09:49:50.110Z,101142.53
2022-12-01T09:53:00.335Z,101138.63
2022-12-01T09:56:08.541Z,101137.31
2022-12-01T09:59:19.724Z,101133.31
2022-12-01T10:02:28.047Z,101127.75
2022-12-01T10:06:03.015Z,101126.81
2022-12-01T10:09:36.531Z,101116.25
2022-12-01T10:12:43.209Z,101109.91
2022-12-01T10:15:48.185Z,101119.09
2022-12-01T10:18:56.388Z,101114.88
2022-12-01T10:22:13.817Z,101114.38
2022-12-01T10:25:27.796Z,101113.63
2022-12-01T10:29:07.573Z,101104.00
2022-12-01T10:32:40.550Z,101105.84
2022-12-01T10:35:43.028Z,101097.38
2022-12-01T10:38:45.740Z,101088.59
2022-12-01T10:41:49.957Z,101092.50
2022-12-01T10:44:54.896Z,101091.88
2022-12-01T10:48:17.786Z,101091.13
2022-12-01T10:51:20.776Z,101084.28
2022-12-01T10:54:31.708Z,101090.56
2022-12-01T10:57:34.231Z,101086.47
2022-12-01T11:00:59.237Z,101087.63
2022-12-01T11:04:45.530Z,101087.06
2022-12-01T11:07:49.574Z,101076.09
2022-12-01T11:10:52.311Z,101081.38
2022-12-01T11:13:56.886Z,101070.09
2022-12-01T11:17:34.493Z,101065.44
2022-12-01T11:20:40.057Z,101063.47
2022-12-01T11:23:50.979Z,101065.72
2022-12-01T11:26:53.498Z,101059.28
2022-12-01T11:30:00.184Z,101052.13
2022-12-01T11:33:04.291Z,101055.31
2022-12-01T11:36:11.820Z,101042.88
2022-12-01T11:39:42.497Z,101050.97
2022-12-01T11:42:52.149Z,101039.13
2022-12-01T11:45:57.215Z,101041.50
2022-12-01T11:49:01.044Z,101046.31
2022-12-01T11:52:27.835Z,101034.81
2022-12-01T11:55:31.745Z,101034.22
2022-12-01T11:58:34.171Z,101045.88
2022-12-01T12:01:53.149Z,101038.91
2022-12-01T12:04:58.382Z,101038.16
2022-12-01T12:08:09.135Z,101036.78
2022-12-01T12:11:14.294Z,101041.00
2022-12-01T12:14:47.614Z,101037.38
2022-12-01T12:18:08.632Z,101035.97
2022-12-01T12:21:35.563Z,101030.66
2022-12-01T12:24:56.539Z,101035.81
2022-12-01T12:28:17.031Z,101038.09
2022-12-01T12:31:52.770Z,101031.13
2022-12-01T12:34:58.201Z,101036.03
2022-12-01T12:38:38.373Z,101031.16
2022-12-01T12:41:46.610Z,101034.84
2022-12-01T12:44:55.715Z,101038.75
2022-12-01T12:48:09.751Z,101028.50
2022-12-01T12:51:22.424Z,101027.84
2022-12-01T12:54:34.768Z,101023.88
2022-12-01T12:57:55.371Z,101036.19
2022-12-01T13:01:17.201Z,101025.88
2022-12-01T13:04:25.239Z,101027.16
2022-12-01T13:07:46.175Z,101037.94
2022-12-01T13:11:03.291Z,101031.59
2022-12-01T13:14:15.613Z,101028.16
2022-12-01T13:17:36.402Z,101024.94
2022-12-01T13:20:39.037Z,101023.56
2022-12-01T13:23:41.820Z,101023.25
2022-12-01T13:26:47.347Z,101010.56
2022-12-01T13:29:53.120Z,101015.56
2022-12-01T13:33:05.424Z,101016.34
2022-12-01T13:39:37.012Z,101016.03
2022-12-01T13:42:40.657Z,101027.78
2022-12-01T13:45:43.499Z,101021.91
2022-12-01T13:48:45.891Z,101022.31
2022-12-01T13:52:22.286Z,101017.22
2022-12-01T13:55:28.248Z,101020.38
2022-12-01T13:58:33.297Z,101017.94
2022-12-01T14:01:43.774Z,101012.97
2022-12-01T14:04:46.908Z,101007.50
2022-12-01T14:07:55.639Z,101014.00
2022-12-01T14:11:05.973Z,101009.91
2022-12-01T14:14:24.374Z,101011.88
2022-12-01T14:17:34.954Z,101009.31
2022-12-01T14:20:46.628Z,101013.78
2022-12-01T14:24:02.746Z,101007.00
2022-12-01T14:27:06.307Z,101004.16
2022-12-01T14:30:40.001Z,101007.66
2022-12-01T14:33:42.194Z,101004.84
2022-12-01T14:36:49.067Z,101008.47
2022-12-01T14:39:58.644Z,101002.81
2022-12-01T14:43:19.867Z,101008.50
2022-12-01T14:46:26.297Z,101008.72
2022-12-01T14:49:39.646Z,101007.16
2022-12-01T14:52:45.175Z,101008.50
2022-12-01T14:56:14.518Z,101001.47
2022-12-01T14:59:23.026Z,101013.50
2022-12-01T15:02:25.446Z,101012.47
2022-12-01T15:05:30.335Z,101014.72
2022-12-01T15:08:41.959Z,101017.66
2022-12-01T15:12:09.194Z,101013.69
2022-12-01T15:15:23.762Z,101006.19
2022-12-01T15:18:31.003Z,101007.69
2022-12-01T15:21:33.456Z,101008.38
2022-12-01T15:24:36.067Z,101011.13
2022-12-01T15:27:38.874Z,101015.53
2022-12-01T15:30:42.984Z,101010.69
2022-12-01T15:33:51.205Z,101014.22
2022-12-01T15:36:54.307Z,101016.00
2022-12-01T15:43:35.180Z,101014.75
2022-12-01T15:46:37.474Z,101013.06
2022-12-01T15:49:49.183Z,101010.69
2022-12-01T15:52:51.599Z,101009.97
2022-12-01T15:55:59.007Z,101023.72
2022-12-01T15:59:10.388Z,101019.75
2022-12-01T16:02:15.593Z,101011.22
2022-12-01T16:05:22.302Z,101018.38
2022-12-01T16:08:27.918Z,101012.72
2022-12-01T16:11:30.759Z,101017.94
2022-12-01T16:14:34.301Z,101026.25
2022-12-01T16:17:47.078Z,101017.72
2022-12-01T16:20:50.280Z,101017.16
2022-12-01T16:24:04.722Z,101020.66
2022-12-01T16:27:18.269Z,101021.56
2022-12-01T16:30:23.605Z,101023.56
2022-12-01T16:33:28.196Z,101016.06
2022-12-01T16:36:30.473Z,101016.75
2022-12-01T16:39:33.039Z,101023.75
2022-12-01T16:42:35.307Z,101030.63
2022-12-01T16:45:37.585Z,101024.47
2022-12-01T16:48:40.039Z,101025.94
2022-12-01T16:51:55.573Z,101031.84
2022-12-01T16:54:58.648Z,101026.91
2022-12-01T16:58:01.128Z,101030.84
2022-12-01T17:01:05.142Z,101025.22
2022-12-01T17:04:07.916Z,101038.41
2022-12-01T17:07:10.319Z,101038.69
2022-12-01T17:10:12.938Z,101041.97
2022-12-01T17:13:15.870Z,101046.00
2022-12-01T17:16:18.925Z,101039.06
2022-12-01T17:19:21.316Z,101046.16
2022-12-01T17:22:24.625Z,101035.63
2022-12-01T17:25:27.335Z,101046.25
2022-12-01T17:28:29.570Z,101041.28
2022-12-01T17:31:31.968Z,101043.72
2022-12-01T17:34:34.349Z,101040.16
2022-12-01T17:37:39.163Z,101037.56
2022-12-01T17:40:42.160Z,101041.03
2022-12-01T17:43:44.572Z,101046.66
2022-12-01T17:46:46.835Z,101044.06
2022-12-01T17:49:49.158Z,101045.06
2022-12-01T17:52:51.702Z,101046.84
2022-12-01T17:55:54.057Z,101044.47
2022-12-01T17:58:56.540Z,101042.56
2022-12-01T18:01:59.028Z,101047.00
2022-12-01T18:05:01.410Z,101042.44
2022-12-01T18:08:04.063Z,101047.69
2022-12-01T18:11:12.214Z,101043.59
2022-12-01T18:14:17.915Z,101047.84
2022-12-01T18:17:20.313Z,101051.28
2022-12-01T18:20:22.566Z,101053.72
2022-12-01T18:23:25.206Z,101046.91
2022-12-01T18:26:29.322Z,101051.31
2022-12-01T18:29:31.776Z,101046.28
2022-12-01T18:32:34.085Z,101049.84
2022-12-01T18:35:41.666Z,101048.47
2022-12-01T18:38:44.453Z,101048.25
2022-12-01T18:41:47.057Z,101048.69
2022-12-01T18:44:49.667Z,101052.53
2022-12-01T18:47:52.437Z,101051.75
2022-12-01T18:50:59.299Z,101058.75
2022-12-01T18:54:04.499Z,101057.31
2022-12-01T18:57:06.907Z,101054.31
2022-12-01T19:00:09.996Z,101050.09
2022-12-01T19:03:12.397Z,101060.72
2022-12-01T19:06:14.789Z,101053.31
2022-12-01T19:09:17.508Z,101058.97
2022-12-01T19:12:19.900Z,101057.41
2022-12-01T19:15:22.763Z,101060.81
2022-12-01T19:18:25.783Z,101065.03
2022-12-01T19:21:28.348Z,101065.22
2022-12-01T19:24:30.619Z,101066.63
2022-12-01T19:27:32.868Z,101070.41
2022-12-01T19:30:35.733Z,101070.25
2022-12-01T19:33:38.460Z,101068.03
2022-12-01T19:36:40.735Z,101074.88
2022-12-01T19:39:43.114Z,101069.47
2022-12-01T19:42:46.061Z,101066.88
2022-12-01T19:45:48.423Z,101066.06
2022-12-01T19:48:56.105Z,101060.72
2022-12-01T19:51:58.350Z,101064.34
2022-12-01T19:55:00.581Z,101073.94
2022-12-01T19:58:04.367Z,101073.34
2022-12-01T20:01:09.445Z,101074.16
2022-12-01T20:04:11.788Z,101073.19
2022-12-01T20:07:14.108Z,101074.84
2022-12-01T20:10:20.122Z,101080.63
2022-12-01T20:13:22.580Z,101083.44
2022-12-01T20:16:26.652Z,101080.03
2022-12-01T20:19:29.041Z,101080.06
2022-12-01T20:22:35.522Z,101085.66
2022-12-01T20:25:38.357Z,101080.84
2022-12-01T20:28:41.348Z,101070.69
2022-12-01T20:31:44.966Z,101080.88
2022-12-01T20:34:47.794Z,101080.50
2022-12-01T20:37:50.550Z,101077.50
2022-12-01T20:40:52.829Z,101077.91
2022-12-01T20:43:55.160Z,101079.72
2022-12-01T20:46:57.857Z,101085.50
2022-12-01T20:50:00.200Z,101093.84
2022-12-01T20:53:02.521Z,101096.88
2022-12-01T20:56:06.789Z,101103.03
2022-12-01T20:59:09.142Z,101097.63
2022-12-01T21:02:11.496Z,101098.63
2022-12-01T21:05:13.912Z,101104.63
2022-12-01T21:08:16.978Z,101101.44
2022-12-01T21:11:43.671Z,101102.84
2022-12-01T21:14:52.645Z,101108.41
2022-12-01T21:18:05.430Z,101104.56
2022-12-01T21:21:35.270Z,101112.72
2022-12-01T21:24:43.341Z,101110.94
2022-12-01T21:27:47.505Z,101111.69
2022-12-01T21:30:52.794Z,101111.88
2022-12-01T21:33:55.788Z,101111.28
2022-12-01T21:37:02.478Z,101119.28
2022-12-01T21:40:15.811Z,101119.28
2022-12-01T21:43:23.960Z,101115.09
2022-12-01T21:46:27.674Z,101116.63
2022-12-01T21:49:37.925Z,101121.84
2022-12-01T21:52:42.733Z,101117.69
2022-12-01T21:55:47.670Z,101126.28
2022-12-01T21:58:50.391Z,101127.91
2022-12-01T22:01:55.103Z,101122.06
2022-12-01T22:04:59.390Z,101121.69
2022-12-01T22:08:15.187Z,101122.44
2022-12-01T22:11:24.493Z,101120.63
2022-12-01T22:14:33.757Z,101126.03
2022-12-01T22:17:36.878Z,101112.84
2022-12-01T22:20:39.130Z,101115.44
2022-12-01T22:23:41.438Z,101119.44
2022-12-01T22:26:47.896Z,101110.03
2022-12-01T22:29:52.902Z,101111.59
2022-12-01T22:33:00.026Z,101115.44
2022-12-01T22:36:02.326Z,101107.25
2022-12-01T22:39:24.538Z,101102.69
2022-12-01T22:42:32.164Z,101107.09
2022-12-01T22:45:34.502Z,101101.50
2022-12-01T22:48:42.165Z,101109.53
2022-12-01T22:51:48.644Z,101096.75
2022-12-01T22:54:51.369Z,101099.00
2022-12-01T22:57:54.726Z,101099.81
2022-12-01T23:01:02.458Z,101094.41
2022-12-01T23:04:24.295Z,101100.03
2022-12-01T23:07:35.191Z,101099.63
2022-12-01T23:10:39.814Z,101095.44
2022-12-01T23:13:42.096Z,101092.06
2022-12-01T23:16:44.363Z,101094.06
2022-12-01T23:19:48.405Z,101100.44
2022-12-01T23:22:56.622Z,101105.25
2022-12-01T23:26:01.818Z,101098.06
2022-12-01T23:29:04.176Z,101103.84
2022-12-01T23:32:06.481Z,101104.66
2022-12-01T23:35:16.903Z,101105.06
2022-12-01T23:38:22.808Z,101108.25
2022-12-01T23:41:25.824Z,101112.47
2022-12-01T23:44:36.882Z,101123.47
2022-12-01T23:47:39.130Z,101104.84
2022-12-01T23:50:41.589Z,101122.03
2022-12-01T23:53:44.558Z,101116.47
2022-12-01T23:56:55.986Z,101121.06
